sensor_id;sensor_type;location;lat;lon;timestamp;P1;durP1;ratioP1;P2;durP2;ratioP2
18838;SDS011;9548;56.920;14.804;2023-04-01T00:01:09;3.83;;;1.95;;
18838;SDS011;9548;56.920;14.804;2023-04-01T00:03:38;2.20;;;1.70;;
18838;SDS011;9548;56.920;14.804;2023-04-01T00:06:06;5.22;;;2.25;;
18838;SDS011;9548;56.920;14.804;2023-04-01T00:08:33;3.85;;;2.00;;
18838;SDS011;9548;56.920;14.804;2023-04-01T00:11:00;7.40;;;2.05;;
18838;SDS011;9548;56.920;14.804;2023-04-01T00:13:28;3.78;;;1.90;;
18838;SDS011;9548;56.920;14.804;2023-04-01T00:15:55;2.95;;;1.80;;
18838;SDS011;9548;56.920;14.804;2023-04-01T00:18:23;5.72;;;2.03;;
18838;SDS011;9548;56.920;14.804;2023-04-01T00:20:51;4.85;;;2.00;;
18838;SDS011;9548;56.920;14.804;2023-04-01T00:23:19;4.40;;;2.10;;
18838;SDS011;9548;56.920;14.804;2023-04-01T00:25:46;3.15;;;1.80;;
18838;SDS011;9548;56.920;14.804;2023-04-01T00:28:14;3.78;;;1.92;;
18838;SDS011;9548;56.920;14.804;2023-04-01T00:30:43;3.17;;;1.75;;
18838;SDS011;9548;56.920;14.804;2023-04-01T00:33:10;5.53;;;2.50;;
18838;SDS011;9548;56.920;14.804;2023-04-01T00:35:39;3.15;;;1.83;;
18838;SDS011;9548;56.920;14.804;2023-04-01T00:38:07;3.05;;;1.95;;
18838;SDS011;9548;56.920;14.804;2023-04-01T00:40:36;4.82;;;1.80;;
18838;SDS011;9548;56.920;14.804;2023-04-01T00:43:08;4.20;;;1.83;;
18838;SDS011;9548;56.920;14.804;2023-04-01T00:45:38;7.00;;;1.88;;
18838;SDS011;9548;56.920;14.804;2023-04-01T00:48:09;5.38;;;1.65;;
18838;SDS011;9548;56.920;14.804;2023-04-01T00:50:39;2.83;;;1.45;;
18838;SDS011;9548;56.920;14.804;2023-04-01T00:53:08;5.70;;;1.77;;
18838;SDS011;9548;56.920;14.804;2023-04-01T00:55:37;2.13;;;1.30;;
18838;SDS011;9548;56.920;14.804;2023-04-01T00:58:08;1.80;;;1.40;;
18838;SDS011;9548;56.920;14.804;2023-04-01T01:00:41;4.13;;;1.73;;
18838;SDS011;9548;56.920;14.804;2023-04-01T01:03:10;4.28;;;1.50;;
18838;SDS011;9548;56.920;14.804;2023-04-01T01:05:42;7.72;;;1.90;;
18838;SDS011;9548;56.920;14.804;2023-04-01T01:08:27;3.22;;;1.58;;
18838;SDS011;9548;56.920;14.804;2023-04-01T01:11:04;2.60;;;1.40;;
18838;SDS011;9548;56.920;14.804;2023-04-01T01:13:34;4.78;;;1.48;;
18838;SDS011;9548;56.920;14.804;2023-04-01T01:16:06;5.68;;;1.90;;
18838;SDS011;9548;56.920;14.804;2023-04-01T01:18:40;2.63;;;1.38;;
18838;SDS011;9548;56.920;14.804;2023-04-01T01:21:26;4.53;;;1.60;;
18838;SDS011;9548;56.920;14.804;2023-04-01T01:24:13;1.83;;;1.27;;
18838;SDS011;9548;56.920;14.804;2023-04-01T01:27:01;3.05;;;1.48;;
18838;SDS011;9548;56.920;14.804;2023-04-01T01:29:39;3.27;;;1.30;;
18838;SDS011;9548;56.920;14.804;2023-04-01T01:32:34;4.20;;;1.08;;
18838;SDS011;9548;56.920;14.804;2023-04-01T01:35:23;2.63;;;1.30;;
18838;SDS011;9548;56.920;14.804;2023-04-01T01:37:58;2.97;;;1.17;;
18838;SDS011;9548;56.920;14.804;2023-04-01T01:40:27;3.70;;;1.27;;
18838;SDS011;9548;56.920;14.804;2023-04-01T01:42:57;3.50;;;1.30;;
18838;SDS011;9548;56.920;14.804;2023-04-01T01:45:29;2.00;;;1.00;;
18838;SDS011;9548;56.920;14.804;2023-04-01T01:47:58;4.13;;;1.10;;
18838;SDS011;9548;56.920;14.804;2023-04-01T01:50:27;2.60;;;1.03;;
18838;SDS011;9548;56.920;14.804;2023-04-01T01:53:02;2.92;;;1.13;;
18838;SDS011;9548;56.920;14.804;2023-04-01T01:55:31;1.73;;;1.10;;
18838;SDS011;9548;56.920;14.804;2023-04-01T01:58:02;3.47;;;1.30;;
18838;SDS011;9548;56.920;14.804;2023-04-01T02:00:34;3.45;;;1.05;;
18838;SDS011;9548;56.920;14.804;2023-04-01T02:03:02;1.67;;;0.98;;
18838;SDS011;9548;56.920;14.804;2023-04-01T02:05:32;1.63;;;0.93;;
18838;SDS011;9548;56.920;14.804;2023-04-01T02:08:00;1.80;;;0.87;;
18838;SDS011;9548;56.920;14.804;2023-04-01T02:10:32;3.17;;;0.90;;
18838;SDS011;9548;56.920;14.804;2023-04-01T02:13:05;2.77;;;1.07;;
18838;SDS011;9548;56.920;14.804;2023-04-01T02:15:39;4.67;;;1.13;;
18838;SDS011;9548;56.920;14.804;2023-04-01T02:18:09;2.83;;;0.90;;
18838;SDS011;9548;56.920;14.804;2023-04-01T02:20:39;2.40;;;0.90;;
18838;SDS011;9548;56.920;14.804;2023-04-01T02:23:07;2.37;;;0.83;;
18838;SDS011;9548;56.920;14.804;2023-04-01T02:25:36;3.00;;;1.23;;
18838;SDS011;9548;56.920;14.804;2023-04-01T02:28:06;6.00;;;1.00;;
18838;SDS011;9548;56.920;14.804;2023-04-01T02:30:34;2.20;;;1.10;;
18838;SDS011;9548;56.920;14.804;2023-04-01T02:33:04;3.17;;;0.97;;
18838;SDS011;9548;56.920;14.804;2023-04-01T02:35:32;1.30;;;1.00;;
18838;SDS011;9548;56.920;14.804;2023-04-01T02:38:03;3.38;;;1.23;;
18838;SDS011;9548;56.920;14.804;2023-04-01T02:40:40;2.20;;;1.10;;
18838;SDS011;9548;56.920;14.804;2023-04-01T02:43:08;1.90;;;0.90;;
18838;SDS011;9548;56.920;14.804;2023-04-01T02:45:36;2.97;;;0.93;;
18838;SDS011;9548;56.920;14.804;2023-04-01T02:48:03;3.27;;;0.87;;
18838;SDS011;9548;56.920;14.804;2023-04-01T02:50:30;1.20;;;0.80;;
18838;SDS011;9548;56.920;14.804;2023-04-01T02:52:57;6.00;;;1.00;;
18838;SDS011;9548;56.920;14.804;2023-04-01T02:55:26;2.17;;;0.80;;
18838;SDS011;9548;56.920;14.804;2023-04-01T02:57:53;4.37;;;0.87;;
18838;SDS011;9548;56.920;14.804;2023-04-01T03:00:20;1.27;;;0.80;;
18838;SDS011;9548;56.920;14.804;2023-04-01T03:02:47;1.73;;;0.90;;
18838;SDS011;9548;56.920;14.804;2023-04-01T03:05:14;5.40;;;1.10;;
18838;SDS011;9548;56.920;14.804;2023-04-01T03:07:41;2.63;;;0.93;;
18838;SDS011;9548;56.920;14.804;2023-04-01T03:10:08;2.90;;;1.00;;
18838;SDS011;9548;56.920;14.804;2023-04-01T03:12:37;1.37;;;0.80;;
18838;SDS011;9548;56.920;14.804;2023-04-01T03:15:04;1.73;;;0.90;;
18838;SDS011;9548;56.920;14.804;2023-04-01T03:17:32;1.73;;;1.00;;
18838;SDS011;9548;56.920;14.804;2023-04-01T03:19:58;1.93;;;1.00;;
18838;SDS011;9548;56.920;14.804;2023-04-01T03:22:26;1.73;;;1.00;;
18838;SDS011;9548;56.920;14.804;2023-04-01T03:24:52;2.77;;;0.93;;
18838;SDS011;9548;56.920;14.804;2023-04-01T03:27:19;0.80;;;0.80;;
18838;SDS011;9548;56.920;14.804;2023-04-01T03:29:48;2.13;;;0.87;;
18838;SDS011;9548;56.920;14.804;2023-04-01T03:32:15;2.60;;;1.00;;
18838;SDS011;9548;56.920;14.804;2023-04-01T03:34:42;5.77;;;0.83;;
18838;SDS011;9548;56.920;14.804;2023-04-01T03:37:09;1.73;;;0.90;;
18838;SDS011;9548;56.920;14.804;2023-04-01T03:39:35;2.10;;;0.93;;
18838;SDS011;9548;56.920;14.804;2023-04-01T03:42:03;3.30;;;1.00;;
18838;SDS011;9548;56.920;14.804;2023-04-01T03:44:31;4.27;;;1.07;;
18838;SDS011;9548;56.920;14.804;2023-04-01T03:47:00;1.13;;;0.80;;
18838;SDS011;9548;56.920;14.804;2023-04-01T03:49:27;1.10;;;0.60;;
18838;SDS011;9548;56.920;14.804;2023-04-01T03:51:53;3.90;;;0.93;;
18838;SDS011;9548;56.920;14.804;2023-04-01T03:54:20;1.58;;;0.80;;
18838;SDS011;9548;56.920;14.804;2023-04-01T03:56:47;1.70;;;0.80;;
18838;SDS011;9548;56.920;14.804;2023-04-01T03:59:15;2.97;;;1.00;;
18838;SDS011;9548;56.920;14.804;2023-04-01T04:01:42;1.93;;;0.90;;
18838;SDS011;9548;56.920;14.804;2023-04-01T04:04:11;2.83;;;0.80;;
18838;SDS011;9548;56.920;14.804;2023-04-01T04:06:39;2.17;;;0.83;;
18838;SDS011;9548;56.920;14.804;2023-04-01T04:09:06;1.87;;;0.90;;
18838;SDS011;9548;56.920;14.804;2023-04-01T04:11:33;3.50;;;1.00;;
18838;SDS011;9548;56.920;14.804;2023-04-01T04:14:00;1.87;;;1.03;;
18838;SDS011;9548;56.920;14.804;2023-04-01T04:16:28;1.97;;;0.60;;
18838;SDS011;9548;56.920;14.804;2023-04-01T04:18:55;1.77;;;0.53;;
18838;SDS011;9548;56.920;14.804;2023-04-01T04:21:23;1.90;;;0.90;;
18838;SDS011;9548;56.920;14.804;2023-04-01T04:23:50;3.70;;;0.60;;
18838;SDS011;9548;56.920;14.804;2023-04-01T04:26:17;1.38;;;0.80;;
18838;SDS011;9548;56.920;14.804;2023-04-01T04:28:44;3.53;;;0.80;;
18838;SDS011;9548;56.920;14.804;2023-04-01T04:31:11;2.23;;;0.80;;
18838;SDS011;9548;56.920;14.804;2023-04-01T04:33:38;3.20;;;0.80;;
18838;SDS011;9548;56.920;14.804;2023-04-01T04:36:05;0.90;;;0.80;;
18838;SDS011;9548;56.920;14.804;2023-04-01T04:38:34;3.60;;;0.70;;
18838;SDS011;9548;56.920;14.804;2023-04-01T04:41:00;3.30;;;0.85;;
18838;SDS011;9548;56.920;14.804;2023-04-01T04:43:27;1.90;;;0.70;;
18838;SDS011;9548;56.920;14.804;2023-04-01T04:45:54;1.48;;;0.77;;
18838;SDS011;9548;56.920;14.804;2023-04-01T04:48:21;2.47;;;1.00;;
18838;SDS011;9548;56.920;14.804;2023-04-01T04:50:49;1.87;;;0.70;;
18838;SDS011;9548;56.920;14.804;2023-04-01T04:53:17;2.53;;;0.70;;
18838;SDS011;9548;56.920;14.804;2023-04-01T04:55:47;1.00;;;0.70;;
18838;SDS011;9548;56.920;14.804;2023-04-01T04:58:15;3.97;;;0.80;;
18838;SDS011;9548;56.920;14.804;2023-04-01T05:00:42;2.40;;;0.80;;
18838;SDS011;9548;56.920;14.804;2023-04-01T05:03:10;1.03;;;0.80;;
18838;SDS011;9548;56.920;14.804;2023-04-01T05:05:37;3.93;;;0.70;;
18838;SDS011;9548;56.920;14.804;2023-04-01T05:08:05;1.70;;;0.87;;
18838;SDS011;9548;56.920;14.804;2023-04-01T05:10:32;2.10;;;0.80;;
18838;SDS011;9548;56.920;14.804;2023-04-01T05:13:01;0.85;;;0.60;;
18838;SDS011;9548;56.920;14.804;2023-04-01T05:15:28;2.72;;;0.77;;
18838;SDS011;9548;56.920;14.804;2023-04-01T05:17:54;3.83;;;0.90;;
18838;SDS011;9548;56.920;14.804;2023-04-01T05:20:21;2.38;;;0.63;;
18838;SDS011;9548;56.920;14.804;2023-04-01T05:22:48;1.77;;;0.75;;
18838;SDS011;9548;56.920;14.804;2023-04-01T05:25:15;1.20;;;0.70;;
18838;SDS011;9548;56.920;14.804;2023-04-01T05:27:42;3.23;;;0.70;;
18838;SDS011;9548;56.920;14.804;2023-04-01T05:30:11;2.40;;;0.67;;
18838;SDS011;9548;56.920;14.804;2023-04-01T05:32:41;4.40;;;0.90;;
18838;SDS011;9548;56.920;14.804;2023-04-01T05:35:08;1.65;;;0.80;;
18838;SDS011;9548;56.920;14.804;2023-04-01T05:37:36;1.80;;;0.80;;
18838;SDS011;9548;56.920;14.804;2023-04-01T05:40:03;0.95;;;0.52;;
18838;SDS011;9548;56.920;14.804;2023-04-01T05:42:31;1.53;;;0.70;;
18838;SDS011;9548;56.920;14.804;2023-04-01T05:44:59;2.75;;;0.70;;
18838;SDS011;9548;56.920;14.804;2023-04-01T05:47:28;1.00;;;0.60;;
18838;SDS011;9548;56.920;14.804;2023-04-01T05:49:55;1.00;;;0.60;;
18838;SDS011;9548;56.920;14.804;2023-04-01T05:52:22;3.03;;;0.70;;
18838;SDS011;9548;56.920;14.804;2023-04-01T05:54:48;1.73;;;0.73;;
18838;SDS011;9548;56.920;14.804;2023-04-01T05:57:16;3.00;;;0.70;;
18838;SDS011;9548;56.920;14.804;2023-04-01T05:59:43;1.20;;;0.80;;
18838;SDS011;9548;56.920;14.804;2023-04-01T06:02:10;3.03;;;0.70;;
18838;SDS011;9548;56.920;14.804;2023-04-01T06:04:39;2.23;;;0.60;;
18838;SDS011;9548;56.920;14.804;2023-04-01T06:07:10;3.40;;;0.73;;
18838;SDS011;9548;56.920;14.804;2023-04-01T06:09:38;3.23;;;0.80;;
18838;SDS011;9548;56.920;14.804;2023-04-01T06:15:11;0.50;;;0.50;;
18838;SDS011;9548;56.920;14.804;2023-04-01T06:21:15;2.10;;;0.70;;
18838;SDS011;9548;56.920;14.804;2023-04-01T06:23:58;0.90;;;0.50;;
18838;SDS011;9548;56.920;14.804;2023-04-01T06:26:39;3.05;;;0.70;;
18838;SDS011;9548;56.920;14.804;2023-04-01T06:29:18;1.80;;;0.80;;
18838;SDS011;9548;56.920;14.804;2023-04-01T06:32:13;0.90;;;0.60;;
18838;SDS011;9548;56.920;14.804;2023-04-01T06:40:43;1.88;;;0.70;;
18838;SDS011;9548;56.920;14.804;2023-04-01T06:43:21;2.60;;;0.73;;
18838;SDS011;9548;56.920;14.804;2023-04-01T06:45:53;5.35;;;0.80;;
18838;SDS011;9548;56.920;14.804;2023-04-01T06:48:32;2.67;;;0.80;;
18838;SDS011;9548;56.920;14.804;2023-04-01T06:51:10;1.67;;;0.70;;
18838;SDS011;9548;56.920;14.804;2023-04-01T06:53:47;1.23;;;0.63;;
18838;SDS011;9548;56.920;14.804;2023-04-01T06:56:19;2.30;;;0.68;;
18838;SDS011;9548;56.920;14.804;2023-04-01T06:58:50;0.90;;;0.60;;
18838;SDS011;9548;56.920;14.804;2023-04-01T07:01:20;0.67;;;0.43;;
18838;SDS011;9548;56.920;14.804;2023-04-01T07:03:53;1.30;;;0.77;;
18838;SDS011;9548;56.920;14.804;2023-04-01T07:06:25;0.88;;;0.52;;
18838;SDS011;9548;56.920;14.804;2023-04-01T07:08:58;4.73;;;0.70;;
18838;SDS011;9548;56.920;14.804;2023-04-01T07:11:29;1.88;;;0.60;;
18838;SDS011;9548;56.920;14.804;2023-04-01T07:13:59;0.82;;;0.63;;
18838;SDS011;9548;56.920;14.804;2023-04-01T07:16:29;0.82;;;0.52;;
18838;SDS011;9548;56.920;14.804;2023-04-01T07:19:00;2.13;;;0.50;;
18838;SDS011;9548;56.920;14.804;2023-04-01T07:21:32;0.52;;;0.50;;
18838;SDS011;9548;56.920;14.804;2023-04-01T07:24:05;1.33;;;0.67;;
18838;SDS011;9548;56.920;14.804;2023-04-01T07:26:36;1.65;;;0.70;;
18838;SDS011;9548;56.920;14.804;2023-04-01T07:29:05;1.17;;;0.53;;
18838;SDS011;9548;56.920;14.804;2023-04-01T07:31:48;1.00;;;0.63;;
18838;SDS011;9548;56.920;14.804;2023-04-01T07:34:36;0.88;;;0.40;;
18838;SDS011;9548;56.920;14.804;2023-04-01T07:37:10;0.70;;;0.50;;
18838;SDS011;9548;56.920;14.804;2023-04-01T07:39:44;1.20;;;0.60;;
18838;SDS011;9548;56.920;14.804;2023-04-01T07:42:22;2.42;;;0.45;;
18838;SDS011;9548;56.920;14.804;2023-04-01T07:44:58;6.20;;;0.82;;
18838;SDS011;9548;56.920;14.804;2023-04-01T07:47:35;2.23;;;0.70;;
18838;SDS011;9548;56.920;14.804;2023-04-01T07:50:13;0.65;;;0.50;;
18838;SDS011;9548;56.920;14.804;2023-04-01T07:52:48;2.20;;;0.50;;
18838;SDS011;9548;56.920;14.804;2023-04-01T07:55:25;0.68;;;0.55;;
18838;SDS011;9548;56.920;14.804;2023-04-01T07:57:58;9.13;;;0.50;;
18838;SDS011;9548;56.920;14.804;2023-04-01T08:00:31;2.97;;;0.70;;
18838;SDS011;9548;56.920;14.804;2023-04-01T08:03:10;0.65;;;0.40;;
18838;SDS011;9548;56.920;14.804;2023-04-01T08:05:49;1.58;;;0.45;;
18838;SDS011;9548;56.920;14.804;2023-04-01T08:08:23;2.15;;;0.40;;
18838;SDS011;9548;56.920;14.804;2023-04-01T08:11:01;2.20;;;0.40;;
18838;SDS011;9548;56.920;14.804;2023-04-01T08:13:38;0.60;;;0.50;;
18838;SDS011;9548;56.920;14.804;2023-04-01T08:16:12;0.40;;;0.40;;
18838;SDS011;9548;56.920;14.804;2023-04-01T08:18:47;3.10;;;0.80;;
18838;SDS011;9548;56.920;14.804;2023-04-01T08:21:23;2.63;;;0.55;;
18838;SDS011;9548;56.920;14.804;2023-04-01T08:23:54;1.23;;;0.50;;
18838;SDS011;9548;56.920;14.804;2023-04-01T08:26:26;1.30;;;0.40;;
18838;SDS011;9548;56.920;14.804;2023-04-01T08:28:59;4.05;;;0.60;;
18838;SDS011;9548;56.920;14.804;2023-04-01T08:31:30;2.25;;;0.50;;
18838;SDS011;9548;56.920;14.804;2023-04-01T08:34:02;1.38;;;0.50;;
18838;SDS011;9548;56.920;14.804;2023-04-01T08:36:31;2.53;;;0.70;;
18838;SDS011;9548;56.920;14.804;2023-04-01T08:39:03;2.60;;;0.50;;
18838;SDS011;9548;56.920;14.804;2023-04-01T08:44:34;0.25;;;0.25;;
18838;SDS011;9548;56.920;14.804;2023-04-01T08:47:38;1.40;;;0.50;;
18838;SDS011;9548;56.920;14.804;2023-04-01T08:50:46;2.03;;;0.50;;
18838;SDS011;9548;56.920;14.804;2023-04-01T08:53:33;3.45;;;0.60;;
18838;SDS011;9548;56.920;14.804;2023-04-01T08:56:13;0.38;;;0.38;;
18838;SDS011;9548;56.920;14.804;2023-04-01T08:58:51;1.10;;;0.60;;
18838;SDS011;9548;56.920;14.804;2023-04-01T09:01:46;0.35;;;0.30;;
18838;SDS011;9548;56.920;14.804;2023-04-01T09:04:30;1.88;;;0.60;;
18838;SDS011;9548;56.920;14.804;2023-04-01T09:07:11;0.55;;;0.43;;
18838;SDS011;9548;56.920;14.804;2023-04-01T09:10:08;0.80;;;0.47;;
18838;SDS011;9548;56.920;14.804;2023-04-01T09:12:58;0.80;;;0.40;;
18838;SDS011;9548;56.920;14.804;2023-04-01T09:15:37;0.28;;;0.22;;
18838;SDS011;9548;56.920;14.804;2023-04-01T09:18:25;0.80;;;0.40;;
18838;SDS011;9548;56.920;14.804;2023-04-01T09:21:12;0.30;;;0.30;;
18838;SDS011;9548;56.920;14.804;2023-04-01T09:26:59;0.70;;;0.47;;
18838;SDS011;9548;56.920;14.804;2023-04-01T09:29:44;2.08;;;0.40;;
18838;SDS011;9548;56.920;14.804;2023-04-01T09:32:46;1.42;;;0.60;;
18838;SDS011;9548;56.920;14.804;2023-04-01T09:35:34;0.80;;;0.70;;
18838;SDS011;9548;56.920;14.804;2023-04-01T09:38:16;2.65;;;0.90;;
18838;SDS011;9548;56.920;14.804;2023-04-01T09:40:49;1.15;;;0.57;;
18838;SDS011;9548;56.920;14.804;2023-04-01T09:43:25;0.45;;;0.32;;
18838;SDS011;9548;56.920;14.804;2023-04-01T09:46:00;0.82;;;0.50;;
18838;SDS011;9548;56.920;14.804;2023-04-01T09:48:40;8.27;;;0.43;;
18838;SDS011;9548;56.920;14.804;2023-04-01T09:51:35;3.85;;;0.30;;
18838;SDS011;9548;56.920;14.804;2023-04-01T09:54:14;1.23;;;0.40;;
18838;SDS011;9548;56.920;14.804;2023-04-01T09:57:09;1.77;;;0.47;;
18838;SDS011;9548;56.920;14.804;2023-04-01T10:06:36;1.98;;;0.50;;
18838;SDS011;9548;56.920;14.804;2023-04-01T10:12:45;1.25;;;0.40;;
18838;SDS011;9548;56.920;14.804;2023-04-01T10:15:33;0.98;;;0.50;;
18838;SDS011;9548;56.920;14.804;2023-04-01T10:18:25;0.30;;;0.30;;
18838;SDS011;9548;56.920;14.804;2023-04-01T10:21:24;1.75;;;0.57;;
18838;SDS011;9548;56.920;14.804;2023-04-01T10:36:20;2.13;;;0.50;;
18838;SDS011;9548;56.920;14.804;2023-04-01T10:42:45;2.70;;;0.40;;
18838;SDS011;9548;56.920;14.804;2023-04-01T10:55:12;2.90;;;0.50;;
18838;SDS011;9548;56.920;14.804;2023-04-01T10:58:13;1.20;;;0.43;;
18838;SDS011;9548;56.920;14.804;2023-04-01T11:07:40;0.40;;;0.38;;
18838;SDS011;9548;56.920;14.804;2023-04-01T11:13:42;1.05;;;0.47;;
18838;SDS011;9548;56.920;14.804;2023-04-01T11:16:43;3.25;;;0.45;;
18838;SDS011;9548;56.920;14.804;2023-04-01T11:19:34;2.63;;;0.47;;
18838;SDS011;9548;56.920;14.804;2023-04-01T11:22:24;1.33;;;0.55;;
18838;SDS011;9548;56.920;14.804;2023-04-01T11:28:24;4.90;;;0.50;;
18838;SDS011;9548;56.920;14.804;2023-04-01T11:31:08;0.77;;;0.40;;
18838;SDS011;9548;56.920;14.804;2023-04-01T11:33:57;5.00;;;0.40;;
18838;SDS011;9548;56.920;14.804;2023-04-01T11:36:34;1.42;;;0.35;;
18838;SDS011;9548;56.920;14.804;2023-04-01T11:39:13;0.40;;;0.40;;
18838;SDS011;9548;56.920;14.804;2023-04-01T11:41:50;6.00;;;0.82;;
18838;SDS011;9548;56.920;14.804;2023-04-01T11:44:23;0.68;;;0.40;;
18838;SDS011;9548;56.920;14.804;2023-04-01T11:46:59;1.25;;;0.50;;
18838;SDS011;9548;56.920;14.804;2023-04-01T11:49:40;3.72;;;0.50;;
18838;SDS011;9548;56.920;14.804;2023-04-01T11:52:17;3.85;;;0.40;;
18838;SDS011;9548;56.920;14.804;2023-04-01T11:55:06;4.60;;;0.45;;
18838;SDS011;9548;56.920;14.804;2023-04-01T11:57:55;0.95;;;0.40;;
18838;SDS011;9548;56.920;14.804;2023-04-01T12:04:03;0.95;;;0.32;;
18838;SDS011;9548;56.920;14.804;2023-04-01T12:06:51;5.78;;;0.50;;
18838;SDS011;9548;56.920;14.804;2023-04-01T12:09:29;1.40;;;0.50;;
18838;SDS011;9548;56.920;14.804;2023-04-01T12:12:10;1.00;;;0.50;;
18838;SDS011;9548;56.920;14.804;2023-04-01T12:14:44;1.40;;;0.47;;
18838;SDS011;9548;56.920;14.804;2023-04-01T12:17:24;1.38;;;0.40;;
18838;SDS011;9548;56.920;14.804;2023-04-01T12:19:56;2.25;;;0.40;;
18838;SDS011;9548;56.920;14.804;2023-04-01T12:22:37;0.70;;;0.45;;
18838;SDS011;9548;56.920;14.804;2023-04-01T12:25:22;2.40;;;0.50;;
18838;SDS011;9548;56.920;14.804;2023-04-01T12:28:00;0.73;;;0.40;;
18838;SDS011;9548;56.920;14.804;2023-04-01T12:30:42;1.42;;;0.40;;
18838;SDS011;9548;56.920;14.804;2023-04-01T12:36:19;0.50;;;0.43;;
18838;SDS011;9548;56.920;14.804;2023-04-01T12:39:06;0.82;;;0.30;;
18838;SDS011;9548;56.920;14.804;2023-04-01T12:41:46;1.80;;;0.40;;
18838;SDS011;9548;56.920;14.804;2023-04-01T12:47:19;1.35;;;0.45;;
18838;SDS011;9548;56.920;14.804;2023-04-01T12:50:08;3.70;;;0.43;;
18838;SDS011;9548;56.920;14.804;2023-04-01T12:53:01;0.40;;;0.40;;
18838;SDS011;9548;56.920;14.804;2023-04-01T12:55:38;1.20;;;0.40;;
18838;SDS011;9548;56.920;14.804;2023-04-01T12:58:13;1.85;;;0.35;;
18838;SDS011;9548;56.920;14.804;2023-04-01T13:01:13;0.95;;;0.30;;
18838;SDS011;9548;56.920;14.804;2023-04-01T13:04:00;0.93;;;0.30;;
18838;SDS011;9548;56.920;14.804;2023-04-01T13:06:49;1.63;;;0.55;;
18838;SDS011;9548;56.920;14.804;2023-04-01T13:09:33;1.52;;;0.35;;
18838;SDS011;9548;56.920;14.804;2023-04-01T13:12:17;6.03;;;0.55;;
18838;SDS011;9548;56.920;14.804;2023-04-01T13:15:13;1.05;;;0.50;;
18838;SDS011;9548;56.920;14.804;2023-04-01T13:17:52;0.55;;;0.40;;
18838;SDS011;9548;56.920;14.804;2023-04-01T13:20:28;1.70;;;0.43;;
18838;SDS011;9548;56.920;14.804;2023-04-01T13:23:10;4.13;;;0.50;;
18838;SDS011;9548;56.920;14.804;2023-04-01T13:25:51;0.77;;;0.35;;
18838;SDS011;9548;56.920;14.804;2023-04-01T13:28:28;1.00;;;0.60;;
18838;SDS011;9548;56.920;14.804;2023-04-01T13:31:01;0.77;;;0.40;;
18838;SDS011;9548;56.920;14.804;2023-04-01T13:33:36;1.98;;;0.40;;
18838;SDS011;9548;56.920;14.804;2023-04-01T13:36:11;2.20;;;0.25;;
18838;SDS011;9548;56.920;14.804;2023-04-01T13:38:57;0.90;;;0.50;;
18838;SDS011;9548;56.920;14.804;2023-04-01T13:41:41;0.63;;;0.40;;
18838;SDS011;9548;56.920;14.804;2023-04-01T13:44:21;1.38;;;0.50;;
18838;SDS011;9548;56.920;14.804;2023-04-01T13:47:03;0.30;;;0.30;;
18838;SDS011;9548;56.920;14.804;2023-04-01T13:50:07;9.63;;;0.50;;
18838;SDS011;9548;56.920;14.804;2023-04-01T13:55:57;7.95;;;0.63;;
18838;SDS011;9548;56.920;14.804;2023-04-01T13:58:43;1.15;;;0.43;;
18838;SDS011;9548;56.920;14.804;2023-04-01T14:01:25;0.60;;;0.40;;
18838;SDS011;9548;56.920;14.804;2023-04-01T14:07:00;1.05;;;0.38;;
18838;SDS011;9548;56.920;14.804;2023-04-01T14:09:51;0.40;;;0.38;;
18838;SDS011;9548;56.920;14.804;2023-04-01T14:12:28;0.40;;;0.30;;
18838;SDS011;9548;56.920;14.804;2023-04-01T14:15:10;0.50;;;0.40;;
18838;SDS011;9548;56.920;14.804;2023-04-01T14:17:59;1.05;;;0.28;;
18838;SDS011;9548;56.920;14.804;2023-04-01T14:20:42;0.70;;;0.28;;
18838;SDS011;9548;56.920;14.804;2023-04-01T14:23:25;1.08;;;0.30;;
18838;SDS011;9548;56.920;14.804;2023-04-01T14:26:07;0.77;;;0.35;;
18838;SDS011;9548;56.920;14.804;2023-04-01T14:28:46;0.40;;;0.30;;
18838;SDS011;9548;56.920;14.804;2023-04-01T14:31:26;1.67;;;0.32;;
18838;SDS011;9548;56.920;14.804;2023-04-01T14:34:06;0.30;;;0.22;;
18838;SDS011;9548;56.920;14.804;2023-04-01T14:36:59;0.50;;;0.30;;
18838;SDS011;9548;56.920;14.804;2023-04-01T14:39:47;1.33;;;0.40;;
18838;SDS011;9548;56.920;14.804;2023-04-01T14:42:30;0.20;;;0.20;;
18838;SDS011;9548;56.920;14.804;2023-04-01T14:45:20;1.05;;;0.40;;
18838;SDS011;9548;56.920;14.804;2023-04-01T14:48:05;0.30;;;0.30;;
18838;SDS011;9548;56.920;14.804;2023-04-01T14:50:41;1.85;;;0.55;;
18838;SDS011;9548;56.920;14.804;2023-04-01T14:53:11;0.65;;;0.28;;
18838;SDS011;9548;56.920;14.804;2023-04-01T14:55:49;5.53;;;0.35;;
18838;SDS011;9548;56.920;14.804;2023-04-01T14:58:19;1.08;;;0.32;;
18838;SDS011;9548;56.920;14.804;2023-04-01T15:00:53;2.55;;;0.30;;
18838;SDS011;9548;56.920;14.804;2023-04-01T15:03:36;1.17;;;0.30;;
18838;SDS011;9548;56.920;14.804;2023-04-01T15:06:27;0.20;;;0.20;;
18838;SDS011;9548;56.920;14.804;2023-04-01T15:09:06;0.22;;;0.13;;
18838;SDS011;9548;56.920;14.804;2023-04-01T15:11:43;2.30;;;0.35;;
18838;SDS011;9548;56.920;14.804;2023-04-01T15:17:01;0.28;;;0.20;;
18838;SDS011;9548;56.920;14.804;2023-04-01T15:19:44;1.55;;;0.20;;
18838;SDS011;9548;56.920;14.804;2023-04-01T15:22:32;3.03;;;0.30;;
18838;SDS011;9548;56.920;14.804;2023-04-01T15:25:21;0.57;;;0.20;;
18838;SDS011;9548;56.920;14.804;2023-04-01T15:27:58;3.05;;;0.30;;
18838;SDS011;9548;56.920;14.804;2023-04-01T15:30:32;0.50;;;0.30;;
18838;SDS011;9548;56.920;14.804;2023-04-01T15:33:07;5.78;;;0.35;;
18838;SDS011;9548;56.920;14.804;2023-04-01T15:35:53;3.03;;;0.30;;
18838;SDS011;9548;56.920;14.804;2023-04-01T15:38:28;0.43;;;0.22;;
18838;SDS011;9548;56.920;14.804;2023-04-01T15:41:07;0.30;;;0.25;;
18838;SDS011;9548;56.920;14.804;2023-04-01T15:43:40;0.20;;;0.20;;
18838;SDS011;9548;56.920;14.804;2023-04-01T15:46:14;0.20;;;0.20;;
18838;SDS011;9548;56.920;14.804;2023-04-01T15:49:09;0.73;;;0.20;;
18838;SDS011;9548;56.920;14.804;2023-04-01T15:51:47;0.30;;;0.25;;
18838;SDS011;9548;56.920;14.804;2023-04-01T15:54:23;1.17;;;0.28;;
18838;SDS011;9548;56.920;14.804;2023-04-01T15:57:11;0.20;;;0.20;;
18838;SDS011;9548;56.920;14.804;2023-04-01T16:00:02;0.52;;;0.20;;
18838;SDS011;9548;56.920;14.804;2023-04-01T16:02:52;0.17;;;0.17;;
18838;SDS011;9548;56.920;14.804;2023-04-01T16:05:42;1.00;;;0.30;;
18838;SDS011;9548;56.920;14.804;2023-04-01T16:08:28;1.40;;;0.20;;
18838;SDS011;9548;56.920;14.804;2023-04-01T16:11:14;0.20;;;0.20;;
18838;SDS011;9548;56.920;14.804;2023-04-01T16:13:54;0.10;;;0.10;;
18838;SDS011;9548;56.920;14.804;2023-04-01T16:16:31;0.52;;;0.20;;
18838;SDS011;9548;56.920;14.804;2023-04-01T16:19:13;0.30;;;0.10;;
18838;SDS011;9548;56.920;14.804;2023-04-01T16:21:58;5.28;;;0.30;;
18838;SDS011;9548;56.920;14.804;2023-04-01T16:24:31;0.90;;;0.20;;
18838;SDS011;9548;56.920;14.804;2023-04-01T16:27:02;1.55;;;0.10;;
18838;SDS011;9548;56.920;14.804;2023-04-01T16:29:37;0.13;;;0.10;;
18838;SDS011;9548;56.920;14.804;2023-04-01T16:32:17;0.20;;;0.10;;
18838;SDS011;9548;56.920;14.804;2023-04-01T16:34:56;1.00;;;0.13;;
18838;SDS011;9548;56.920;14.804;2023-04-01T16:37:32;0.10;;;0.08;;
18838;SDS011;9548;56.920;14.804;2023-04-01T16:40:11;0.25;;;0.00;;
18838;SDS011;9548;56.920;14.804;2023-04-01T16:42:50;0.55;;;0.20;;
18838;SDS011;9548;56.920;14.804;2023-04-01T16:45:26;0.60;;;0.10;;
18838;SDS011;9548;56.920;14.804;2023-04-01T16:48:05;0.10;;;0.10;;
18838;SDS011;9548;56.920;14.804;2023-04-01T16:50:42;0.17;;;0.10;;
18838;SDS011;9548;56.920;14.804;2023-04-01T16:53:17;1.45;;;0.10;;
18838;SDS011;9548;56.920;14.804;2023-04-01T16:55:50;0.30;;;0.10;;
18838;SDS011;9548;56.920;14.804;2023-04-01T16:58:26;0.20;;;0.00;;
18838;SDS011;9548;56.920;14.804;2023-04-01T17:00:58;0.20;;;0.10;;
18838;SDS011;9548;56.920;14.804;2023-04-01T17:03:29;0.13;;;0.10;;
18838;SDS011;9548;56.920;14.804;2023-04-01T17:06:07;0.10;;;0.10;;